Time,TemperatureF,DewpointF,PressureIn,WindDirection,WindDirectionDegrees,WindSpeedMPH,WindSpeedGustMPH,Humidity,HourlyPrecipIn,Conditions,Clouds,dailyrainin,SoftwareType,DateUTC
2013-02-06 00:01:00,54.9,50.0,29.96,SE,141,0.0,-999.0,82,-99.99,,,0.00,weatherlink.com 1.10,2013-02-06 08:01:00,
2013-02-06 00:16:00,54.9,50.0,29.97,SE,141,0.0,-999.0,82,-99.99,,,0.00,weatherlink.com 1.10,2013-02-06 08:16:00,
2013-02-06 00:31:00,54.9,50.0,29.96,SE,141,0.0,-999.0,82,-99.99,,,0.00,weatherlink.com 1.10,2013-02-06 08:31:00,
2013-02-06 00:46:00,54.8,49.0,29.96,SE,141,0.0,-999.0,82,-99.99,,,0.00,weatherlink.com 1.10,2013-02-06 08:46:00,
2013-02-06 01:01:00,54.7,50.0,29.96,SE,141,0.0,-999.0,83,-99.99,,,0.00,weatherlink.com 1.10,2013-02-06 09:01:00,
2013-02-06 01:16:00,54.6,50.0,29.96,SE,141,0.0,-999.0,83,-99.99,,,0.00,weatherlink.com 1.10,2013-02-06 09:16:00,
2013-02-06 01:32:00,54.5,49.0,29.96,SE,141,0.0,-999.0,83,-99.99,,,0.00,weatherlink.com 1.10,2013-02-06 09:32:00,
2013-02-06 01:47:00,54.6,50.0,29.96,SE,141,0.0,-999.0,83,-99.99,,,0.00,weatherlink.com 1.10,2013-02-06 09:47:00,
2013-02-06 02:02:00,54.5,49.0,29.95,SE,141,0.0,-999.0,83,-99.99,,,0.00,weatherlink.com 1.10,2013-02-06 10:02:00,
2013-02-06 02:16:00,54.4,50.0,29.96,SE,141,0.0,-999.0,84,-99.99,,,0.00,weatherlink.com 1.10,2013-02-06 10:16:00,
2013-02-06 02:31:00,54.4,50.0,29.96,SE,141,0.0,-999.0,84,-99.99,,,0.00,weatherlink.com 1.10,2013-02-06 10:31:00,
2013-02-06 02:46:00,54.4,50.0,29.95,SE,141,0.0,-999.0,84,-99.99,,,0.00,weatherlink.com 1.10,2013-02-06 10:46:00,
2013-02-06 03:02:00,54.2,50.0,29.95,SE,141,0.0,-999.0,84,-99.99,,,0.00,weatherlink.com 1.10,2013-02-06 11:02:00,
2013-02-06 03:17:00,54.1,49.0,29.94,SE,141,2.0,-999.0,84,-99.99,,,0.00,weatherlink.com 1.10,2013-02-06 11:17:00,
2013-02-06 03:32:00,54.1,50.0,29.94,SE,142,0.0,-999.0,85,-99.99,,,0.00,weatherlink.com 1.10,2013-02-06 11:32:00,
2013-02-06 03:47:00,54.0,50.0,29.94,SE,142,0.0,-999.0,85,-99.99,,,0.00,weatherlink.com 1.10,2013-02-06 11:47:00,
2013-02-06 04:02:00,54.0,50.0,29.94,SE,142,0.0,-999.0,85,-99.99,,,0.00,weatherlink.com 1.10,2013-02-06 12:02:00,
2013-02-06 04:17:00,53.9,50.0,29.94,SE,142,0.0,-999.0,85,-99.99,,,0.00,weatherlink.com 1.10,2013-02-06 12:17:00,
2013-02-06 04:32:00,53.7,49.0,29.94,SE,142,0.0,-999.0,85,-99.99,,,0.00,weatherlink.com 1.10,2013-02-06 12:32:00,
2013-02-06 04:47:00,53.6,50.0,29.94,SE,142,0.0,-999.0,86,-99.99,,,0.00,weatherlink.com 1.10,2013-02-06 12:47:00,
2013-02-06 05:02:00,53.4,49.0,29.94,SE,142,0.0,-999.0,86,-99.99,,,0.00,weatherlink.com 1.10,2013-02-06 13:02:00,
2013-02-06 05:17:00,53.1,49.0,29.94,SE,142,0.0,-999.0,86,-99.99,,,0.00,weatherlink.com 1.10,2013-02-06 13:17:00,
2013-02-06 05:32:00,52.8,49.0,29.94,SE,142,0.0,-999.0,86,-99.99,,,0.00,weatherlink.com 1.10,2013-02-06 13:32:00,
2013-02-06 05:47:00,52.5,49.0,29.95,SE,142,0.0,-999.0,87,-99.99,,,0.00,weatherlink.com 1.10,2013-02-06 13:47:00,
2013-02-06 06:02:00,52.4,49.0,29.95,SE,142,0.0,-999.0,87,-99.99,,,0.00,weatherlink.com 1.10,2013-02-06 14:02:00,
2013-02-06 06:17:00,52.2,49.0,29.95,SE,142,0.0,-999.0,88,-99.99,,,0.00,weatherlink.com 1.10,2013-02-06 14:17:00,
2013-02-06 06:32:00,51.9,49.0,29.95,SE,142,0.0,-999.0,88,-99.99,,,0.00,weatherlink.com 1.10,2013-02-06 14:32:00,
2013-02-06 06:47:00,51.9,49.0,29.96,SE,142,0.0,-999.0,89,-99.99,,,0.00,weatherlink.com 1.10,2013-02-06 14:47:00,
2013-02-06 07:02:00,51.9,49.0,29.96,SE,142,0.0,-999.0,89,-99.99,,,0.00,weatherlink.com 1.10,2013-02-06 15:02:00,
2013-02-06 07:17:00,52.0,49.0,29.97,SE,142,0.0,-999.0,89,-99.99,,,0.00,weatherlink.com 1.10,2013-02-06 15:17:00,
2013-02-06 07:32:00,52.4,50.0,29.97,SE,142,0.0,-999.0,90,-99.99,,,0.00,weatherlink.com 1.10,2013-02-06 15:32:00,
2013-02-06 07:47:00,53.0,50.0,29.97,SE,142,0.0,-999.0,90,-99.99,,,0.00,weatherlink.com 1.10,2013-02-06 15:47:00,
2013-02-06 08:02:00,53.8,51.0,29.99,SE,142,0.0,-999.0,89,-99.99,,,0.00,weatherlink.com 1.10,2013-02-06 16:02:00,
2013-02-06 08:17:00,54.5,50.0,29.98,SE,142,1.0,-999.0,86,-99.99,,,0.00,weatherlink.com 1.10,2013-02-06 16:17:00,
2013-02-06 08:33:00,56.0,51.0,29.99,SE,142,0.0,-999.0,82,-99.99,,,0.00,weatherlink.com 1.10,2013-02-06 16:33:00,
2013-02-06 08:47:00,56.6,51.0,30.00,SE,142,1.0,-999.0,80,-99.99,,,0.00,weatherlink.com 1.10,2013-02-06 16:47:00,
2013-02-06 09:03:00,58.2,51.0,30.00,SE,142,0.0,-999.0,77,-99.99,,,0.00,weatherlink.com 1.10,2013-02-06 17:03:00,
2013-02-06 09:17:00,59.1,52.0,30.00,SW,223,1.0,-999.0,77,-99.99,,,0.00,weatherlink.com 1.10,2013-02-06 17:17:00,
2013-02-06 09:32:00,59.2,51.0,30.00,NNW,333,2.0,-999.0,74,-99.99,,,0.00,weatherlink.com 1.10,2013-02-06 17:32:00,
2013-02-06 09:47:00,58.4,51.0,30.00,NNW,333,0.0,-999.0,75,-99.99,,,0.00,weatherlink.com 1.10,2013-02-06 17:47:00,
2013-02-06 10:03:00,58.1,50.0,30.01,NNW,333,0.0,-999.0,75,-99.99,,,0.00,weatherlink.com 1.10,2013-02-06 18:03:00,
2013-02-06 10:17:00,58.7,51.0,30.01,NNW,333,0.0,-999.0,76,-99.99,,,0.00,weatherlink.com 1.10,2013-02-06 18:17:00,
2013-02-06 10:33:00,60.8,51.0,30.01,SSE,148,4.0,-999.0,70,-99.99,,,0.00,weatherlink.com 1.10,2013-02-06 18:33:00,
2013-02-06 10:47:00,63.0,51.0,30.00,SE,125,1.0,-999.0,66,-99.99,,,0.00,weatherlink.com 1.10,2013-02-06 18:47:00,
2013-02-06 11:03:00,62.9,49.0,30.00,WSW,257,1.0,-999.0,61,-99.99,,,0.00,weatherlink.com 1.10,2013-02-06 19:03:00,
2013-02-06 11:18:00,61.1,50.0,30.00,SSW,211,3.0,-999.0,68,-99.99,,,0.00,weatherlink.com 1.10,2013-02-06 19:18:00,
2013-02-06 11:33:00,62.7,52.0,30.00,South,170,2.0,-999.0,67,-99.99,,,0.00,weatherlink.com 1.10,2013-02-06 19:33:00,
2013-02-06 11:48:00,63.1,51.0,30.00,SSW,200,2.0,-999.0,64,-99.99,,,0.00,weatherlink.com 1.10,2013-02-06 19:48:00,
2013-02-06 12:03:00,62.6,51.0,29.99,SW,215,4.0,-999.0,66,-99.99,,,0.00,weatherlink.com 1.10,2013-02-06 20:03:00,
2013-02-06 12:18:00,63.2,51.0,29.99,SSW,201,4.0,-999.0,65,-99.99,,,0.00,weatherlink.com 1.10,2013-02-06 20:18:00,
2013-02-06 12:33:00,63.0,51.0,29.98,WSW,246,3.0,-999.0,64,-99.99,,,0.00,weatherlink.com 1.10,2013-02-06 20:33:00,
2013-02-06 12:48:00,63.7,50.0,29.97,South,188,4.0,-999.0,62,-99.99,,,0.00,weatherlink.com 1.10,2013-02-06 20:48:00,
2013-02-06 13:03:00,64.4,50.0,29.97,West,271,5.0,-999.0,61,-99.99,,,0.00,weatherlink.com 1.10,2013-02-06 21:03:00,
2013-02-06 13:18:00,63.9,50.0,29.96,SW,236,5.0,-999.0,62,-99.99,,,0.00,weatherlink.com 1.10,2013-02-06 21:18:00,
2013-02-06 13:33:00,63.8,51.0,29.96,WSW,252,3.0,-999.0,63,-99.99,,,0.00,weatherlink.com 1.10,2013-02-06 21:33:00,
2013-02-06 13:48:00,64.0,51.0,29.96,West,270,2.0,-999.0,64,-99.99,,,0.00,weatherlink.com 1.10,2013-02-06 21:48:00,
2013-02-06 14:03:00,63.6,52.0,29.96,North,355,1.0,-999.0,65,-99.99,,,0.00,weatherlink.com 1.10,2013-02-06 22:03:00,
2013-02-06 14:18:00,64.4,52.0,29.96,WSW,246,3.0,-999.0,64,-99.99,,,0.00,weatherlink.com 1.10,2013-02-06 22:18:00,
2013-02-06 14:33:00,65.3,52.0,29.96,WSW,241,7.0,-999.0,63,-99.99,,,0.00,weatherlink.com 1.10,2013-02-06 22:33:00,
2013-02-06 14:48:00,64.9,52.0,29.96,SW,217,5.0,-999.0,64,-99.99,,,0.00,weatherlink.com 1.10,2013-02-06 22:48:00,
2013-02-06 15:03:00,63.0,52.0,29.96,SW,215,5.0,-999.0,67,-99.99,,,0.00,weatherlink.com 1.10,2013-02-06 23:03:00,
2013-02-06 15:18:00,63.2,52.0,29.96,SW,214,9.0,-999.0,66,-99.99,,,0.00,weatherlink.com 1.10,2013-02-06 23:18:00,
2013-02-06 15:33:00,62.4,51.0,29.96,SW,221,9.0,-999.0,66,-99.99,,,0.00,weatherlink.com 1.10,2013-02-06 23:33:00,
2013-02-06 15:48:00,61.5,50.0,29.96,SW,219,7.0,-999.0,67,-99.99,,,0.00,weatherlink.com 1.10,2013-02-06 23:48:00,
2013-02-06 16:03:00,61.7,51.0,29.96,SW,227,5.0,-999.0,67,-99.99,,,0.00,weatherlink.com 1.10,2013-02-07 00:03:00,
2013-02-06 16:18:00,61.6,51.0,29.96,SW,235,1.0,-999.0,68,-99.99,,,0.00,weatherlink.com 1.10,2013-02-07 00:18:00,
2013-02-06 16:33:00,60.7,50.0,29.97,WSW,243,2.0,-999.0,69,-99.99,,,0.00,weatherlink.com 1.10,2013-02-07 00:33:00,
2013-02-06 16:48:00,60.1,51.0,29.97,NNW,344,2.0,-999.0,72,-99.99,,,0.00,weatherlink.com 1.10,2013-02-07 00:48:00,
2013-02-06 17:03:00,59.2,51.0,29.97,NNW,346,0.0,-999.0,73,-99.99,,,0.00,weatherlink.com 1.10,2013-02-07 01:03:00,
2013-02-06 17:18:00,58.3,50.0,29.97,NW,316,0.0,-999.0,74,-99.99,,,0.00,weatherlink.com 1.10,2013-02-07 01:18:00,
2013-02-06 17:33:00,57.5,50.0,29.98,NNW,332,1.0,-999.0,76,-99.99,,,0.00,weatherlink.com 1.10,2013-02-07 01:33:00,
2013-02-06 17:48:00,57.0,50.0,29.98,NNW,332,3.0,-999.0,77,-99.99,,,0.00,weatherlink.com 1.10,2013-02-07 01:48:00,
2013-02-06 18:03:00,56.6,50.0,29.99,WNW,285,0.0,-999.0,79,-99.99,,,0.00,weatherlink.com 1.10,2013-02-07 02:03:00,
2013-02-06 18:18:00,56.1,50.0,29.99,North,360,1.0,-999.0,80,-99.99,,,0.00,weatherlink.com 1.10,2013-02-07 02:18:00,
2013-02-06 18:33:00,55.7,50.0,29.99,NNW,340,1.0,-999.0,81,-99.99,,,0.00,weatherlink.com 1.10,2013-02-07 02:33:00,
2013-02-06 18:48:00,55.4,50.0,30.00,NW,324,1.0,-999.0,82,-99.99,,,0.00,weatherlink.com 1.10,2013-02-07 02:48:00,
2013-02-06 19:03:00,55.0,50.0,29.99,NW,324,0.0,-999.0,83,-99.99,,,0.00,weatherlink.com 1.10,2013-02-07 03:03:00,
2013-02-06 19:18:00,54.4,49.0,30.00,NW,324,0.0,-999.0,83,-99.99,,,0.00,weatherlink.com 1.10,2013-02-07 03:18:00,
2013-02-06 19:33:00,54.1,49.0,30.00,NW,324,0.0,-999.0,84,-99.99,,,0.00,weatherlink.com 1.10,2013-02-07 03:33:00,
2013-02-06 19:48:00,53.8,49.0,30.01,NW,324,0.0,-999.0,85,-99.99,,,0.00,weatherlink.com 1.10,2013-02-07 03:48:00,
2013-02-06 20:03:00,53.4,49.0,30.02,NW,324,0.0,-999.0,85,-99.99,,,0.00,weatherlink.com 1.10,2013-02-07 04:03:00,
2013-02-06 20:18:00,52.8,49.0,30.02,NW,324,0.0,-999.0,86,-99.99,,,0.00,weatherlink.com 1.10,2013-02-07 04:18:00,
2013-02-06 20:33:00,52.2,48.0,30.02,NW,324,0.0,-999.0,86,-99.99,,,0.00,weatherlink.com 1.10,2013-02-07 04:33:00,
2013-02-06 20:48:00,51.9,48.0,30.03,NW,324,0.0,-999.0,87,-99.99,,,0.00,weatherlink.com 1.10,2013-02-07 04:48:00,
2013-02-06 21:03:00,51.3,48.0,30.03,NW,324,0.0,-999.0,88,-99.99,,,0.00,weatherlink.com 1.10,2013-02-07 05:03:00,
2013-02-06 21:18:00,50.7,47.0,30.03,NW,324,0.0,-999.0,88,-99.99,,,0.00,weatherlink.com 1.10,2013-02-07 05:18:00,
2013-02-06 21:33:00,50.0,47.0,30.03,NW,324,0.0,-999.0,88,-99.99,,,0.00,weatherlink.com 1.10,2013-02-07 05:33:00,
2013-02-06 21:49:00,49.6,47.0,30.03,NW,324,0.0,-999.0,89,-99.99,,,0.00,weatherlink.com 1.10,2013-02-07 05:49:00,
2013-02-06 22:03:00,49.0,46.0,30.04,NW,324,0.0,-999.0,89,-99.99,,,0.00,weatherlink.com 1.10,2013-02-07 06:03:00,
2013-02-06 22:19:00,48.5,46.0,30.04,NW,324,0.0,-999.0,89,-99.99,,,0.00,weatherlink.com 1.10,2013-02-07 06:19:00,
2013-02-06 22:34:00,48.2,46.0,30.04,NW,324,0.0,-999.0,90,-99.99,,,0.00,weatherlink.com 1.10,2013-02-07 06:34:00,
2013-02-06 22:48:00,47.5,45.0,30.04,NW,324,0.0,-999.0,90,-99.99,,,0.00,weatherlink.com 1.10,2013-02-07 06:48:00,
2013-02-06 23:03:00,47.4,45.0,30.05,NW,324,0.0,-999.0,91,-99.99,,,0.00,weatherlink.com 1.10,2013-02-07 07:03:00,
2013-02-06 23:18:00,47.2,45.0,30.05,NW,324,0.0,-999.0,91,-99.99,,,0.00,weatherlink.com 1.10,2013-02-07 07:18:00,
2013-02-06 23:33:00,46.8,44.0,30.05,NW,324,0.0,-999.0,91,-99.99,,,0.00,weatherlink.com 1.10,2013-02-07 07:33:00,
2013-02-06 23:48:00,46.5,44.0,30.05,NW,324,0.0,-999.0,91,-99.99,,,0.00,weatherlink.com 1.10,2013-02-07 07:48:00,